sensor_id;sensor_type;location;lat;lon;timestamp;P1;durP1;ratioP1;P2;durP2;ratioP2
83184;SDS011;73080;48.768;11.528;2023-12-20T00:03:38;9.73;;;5.07;;
83184;SDS011;73080;48.768;11.528;2023-12-20T00:06:03;9.50;;;4.80;;
83184;SDS011;73080;48.768;11.528;2023-12-20T00:08:29;9.85;;;5.00;;
83184;SDS011;73080;48.768;11.528;2023-12-20T00:10:54;11.07;;;5.50;;
83184;SDS011;73080;48.768;11.528;2023-12-20T00:13:19;9.67;;;5.67;;
83184;SDS011;73080;48.768;11.528;2023-12-20T00:15:48;9.53;;;4.80;;
83184;SDS011;73080;48.768;11.528;2023-12-20T00:18:13;8.98;;;5.70;;
83184;SDS011;73080;48.768;11.528;2023-12-20T00:20:38;10.43;;;4.40;;
83184;SDS011;73080;48.768;11.528;2023-12-20T00:23:03;8.65;;;4.18;;
83184;SDS011;73080;48.768;11.528;2023-12-20T00:25:35;8.20;;;4.53;;
83184;SDS011;73080;48.768;11.528;2023-12-20T00:28:00;9.80;;;4.68;;
83184;SDS011;73080;48.768;11.528;2023-12-20T00:30:26;8.88;;;4.63;;
83184;SDS011;73080;48.768;11.528;2023-12-20T00:32:51;8.70;;;4.33;;
83184;SDS011;73080;48.768;11.528;2023-12-20T00:35:16;9.13;;;4.50;;
83184;SDS011;73080;48.768;11.528;2023-12-20T00:37:42;9.30;;;4.90;;
83184;SDS011;73080;48.768;11.528;2023-12-20T00:40:08;7.25;;;3.80;;
83184;SDS011;73080;48.768;11.528;2023-12-20T00:42:34;9.50;;;4.90;;
83184;SDS011;73080;48.768;11.528;2023-12-20T00:45:00;9.27;;;4.00;;
83184;SDS011;73080;48.768;11.528;2023-12-20T00:47:25;8.68;;;4.57;;
83184;SDS011;73080;48.768;11.528;2023-12-20T00:49:51;9.18;;;4.78;;
83184;SDS011;73080;48.768;11.528;2023-12-20T00:52:19;10.50;;;5.43;;
83184;SDS011;73080;48.768;11.528;2023-12-20T00:54:45;11.38;;;5.82;;
83184;SDS011;73080;48.768;11.528;2023-12-20T00:57:13;11.85;;;5.68;;
83184;SDS011;73080;48.768;11.528;2023-12-20T00:59:39;11.35;;;5.07;;
83184;SDS011;73080;48.768;11.528;2023-12-20T01:02:10;8.13;;;4.00;;
83184;SDS011;73080;48.768;11.528;2023-12-20T01:04:35;7.35;;;3.95;;
83184;SDS011;73080;48.768;11.528;2023-12-20T01:07:00;7.90;;;4.53;;
83184;SDS011;73080;48.768;11.528;2023-12-20T01:09:26;7.27;;;4.33;;
83184;SDS011;73080;48.768;11.528;2023-12-20T01:11:51;8.17;;;4.00;;
83184;SDS011;73080;48.768;11.528;2023-12-20T01:14:17;7.13;;;4.28;;
83184;SDS011;73080;48.768;11.528;2023-12-20T01:19:10;8.63;;;4.60;;
83184;SDS011;73080;48.768;11.528;2023-12-20T01:21:35;8.63;;;4.43;;
83184;SDS011;73080;48.768;11.528;2023-12-20T01:24:01;8.95;;;4.15;;
83184;SDS011;73080;48.768;11.528;2023-12-20T01:26:26;11.37;;;4.97;;
83184;SDS011;73080;48.768;11.528;2023-12-20T01:28:52;8.63;;;4.53;;
83184;SDS011;73080;48.768;11.528;2023-12-20T01:31:17;8.15;;;4.38;;
83184;SDS011;73080;48.768;11.528;2023-12-20T01:33:42;8.17;;;4.17;;
83184;SDS011;73080;48.768;11.528;2023-12-20T01:36:08;9.15;;;3.58;;
83184;SDS011;73080;48.768;11.528;2023-12-20T01:38:33;8.18;;;3.83;;
83184;SDS011;73080;48.768;11.528;2023-12-20T01:40:59;8.52;;;3.97;;
83184;SDS011;73080;48.768;11.528;2023-12-20T01:43:24;7.10;;;3.70;;
83184;SDS011;73080;48.768;11.528;2023-12-20T01:45:50;6.20;;;3.47;;
83184;SDS011;73080;48.768;11.528;2023-12-20T01:48:16;8.57;;;3.20;;
83184;SDS011;73080;48.768;11.528;2023-12-20T01:50:43;6.70;;;3.47;;
83184;SDS011;73080;48.768;11.528;2023-12-20T01:53:15;7.75;;;4.15;;
83184;SDS011;73080;48.768;11.528;2023-12-20T01:55:43;10.98;;;3.47;;
83184;SDS011;73080;48.768;11.528;2023-12-20T01:58:12;9.02;;;4.18;;
83184;SDS011;73080;48.768;11.528;2023-12-20T02:00:38;6.85;;;3.50;;
83184;SDS011;73080;48.768;11.528;2023-12-20T02:03:04;7.00;;;3.28;;
83184;SDS011;73080;48.768;11.528;2023-12-20T02:05:30;7.35;;;3.50;;
83184;SDS011;73080;48.768;11.528;2023-12-20T02:07:57;6.50;;;3.28;;
83184;SDS011;73080;48.768;11.528;2023-12-20T02:10:22;7.15;;;3.80;;
83184;SDS011;73080;48.768;11.528;2023-12-20T02:12:48;7.38;;;4.00;;
83184;SDS011;73080;48.768;11.528;2023-12-20T02:15:13;6.47;;;3.57;;
83184;SDS011;73080;48.768;11.528;2023-12-20T02:17:39;7.70;;;3.83;;
83184;SDS011;73080;48.768;11.528;2023-12-20T02:20:05;6.93;;;3.33;;
83184;SDS011;73080;48.768;11.528;2023-12-20T02:22:31;7.80;;;3.88;;
83184;SDS011;73080;48.768;11.528;2023-12-20T02:24:56;8.00;;;4.38;;
83184;SDS011;73080;48.768;11.528;2023-12-20T02:27:22;7.22;;;3.50;;
83184;SDS011;73080;48.768;11.528;2023-12-20T02:29:48;7.43;;;3.67;;
83184;SDS011;73080;48.768;11.528;2023-12-20T02:34:42;9.32;;;4.43;;
83184;SDS011;73080;48.768;11.528;2023-12-20T02:37:08;9.30;;;3.50;;
83184;SDS011;73080;48.768;11.528;2023-12-20T02:39:36;7.68;;;3.83;;
83184;SDS011;73080;48.768;11.528;2023-12-20T02:42:01;6.38;;;3.70;;
83184;SDS011;73080;48.768;11.528;2023-12-20T02:44:27;7.82;;;3.80;;
83184;SDS011;73080;48.768;11.528;2023-12-20T02:46:52;12.20;;;4.60;;
83184;SDS011;73080;48.768;11.528;2023-12-20T02:49:20;8.27;;;4.73;;
83184;SDS011;73080;48.768;11.528;2023-12-20T02:54:11;7.95;;;3.70;;
83184;SDS011;73080;48.768;11.528;2023-12-20T02:56:36;9.45;;;4.10;;
83184;SDS011;73080;48.768;11.528;2023-12-20T02:59:02;9.35;;;4.30;;
83184;SDS011;73080;48.768;11.528;2023-12-20T03:01:27;7.80;;;3.47;;
83184;SDS011;73080;48.768;11.528;2023-12-20T03:03:53;6.43;;;3.33;;
83184;SDS011;73080;48.768;11.528;2023-12-20T03:06:21;7.97;;;3.40;;
83184;SDS011;73080;48.768;11.528;2023-12-20T03:08:46;7.63;;;2.92;;
83184;SDS011;73080;48.768;11.528;2023-12-20T03:11:15;5.33;;;2.63;;
83184;SDS011;73080;48.768;11.528;2023-12-20T03:13:40;5.55;;;2.70;;
83184;SDS011;73080;48.768;11.528;2023-12-20T03:16:14;5.25;;;2.22;;
83184;SDS011;73080;48.768;11.528;2023-12-20T03:21:07;7.67;;;3.50;;
83184;SDS011;73080;48.768;11.528;2023-12-20T03:26:01;5.97;;;2.20;;
83184;SDS011;73080;48.768;11.528;2023-12-20T03:28:32;5.35;;;2.45;;
83184;SDS011;73080;48.768;11.528;2023-12-20T03:30:58;5.00;;;2.33;;
83184;SDS011;73080;48.768;11.528;2023-12-20T03:33:23;5.35;;;2.58;;
83184;SDS011;73080;48.768;11.528;2023-12-20T03:35:48;5.82;;;2.55;;
83184;SDS011;73080;48.768;11.528;2023-12-20T03:38:14;5.60;;;2.95;;
83184;SDS011;73080;48.768;11.528;2023-12-20T03:40:39;7.33;;;2.90;;
83184;SDS011;73080;48.768;11.528;2023-12-20T03:43:05;6.18;;;2.50;;
83184;SDS011;73080;48.768;11.528;2023-12-20T03:45:30;7.32;;;2.88;;
83184;SDS011;73080;48.768;11.528;2023-12-20T03:47:55;5.53;;;2.90;;
83184;SDS011;73080;48.768;11.528;2023-12-20T03:50:24;6.33;;;2.80;;
83184;SDS011;73080;48.768;11.528;2023-12-20T03:52:49;7.35;;;2.80;;
83184;SDS011;73080;48.768;11.528;2023-12-20T03:55:15;7.47;;;3.40;;
83184;SDS011;73080;48.768;11.528;2023-12-20T03:57:43;6.35;;;3.35;;
83184;SDS011;73080;48.768;11.528;2023-12-20T04:02:34;7.68;;;3.45;;
83184;SDS011;73080;48.768;11.528;2023-12-20T04:04:59;7.55;;;3.05;;
83184;SDS011;73080;48.768;11.528;2023-12-20T04:07:24;6.20;;;3.10;;
83184;SDS011;73080;48.768;11.528;2023-12-20T04:09:50;7.22;;;3.42;;
83184;SDS011;73080;48.768;11.528;2023-12-20T04:12:15;6.90;;;3.80;;
83184;SDS011;73080;48.768;11.528;2023-12-20T04:14:40;8.63;;;4.23;;
83184;SDS011;73080;48.768;11.528;2023-12-20T04:17:06;8.43;;;3.53;;
83184;SDS011;73080;48.768;11.528;2023-12-20T04:19:34;8.13;;;4.43;;
83184;SDS011;73080;48.768;11.528;2023-12-20T04:24:25;8.75;;;4.80;;
83184;SDS011;73080;48.768;11.528;2023-12-20T04:26:50;8.90;;;4.37;;
83184;SDS011;73080;48.768;11.528;2023-12-20T04:29:18;8.53;;;4.43;;
83184;SDS011;73080;48.768;11.528;2023-12-20T04:36:34;9.63;;;4.27;;
83184;SDS011;73080;48.768;11.528;2023-12-20T04:38:59;8.57;;;4.47;;
83184;SDS011;73080;48.768;11.528;2023-12-20T04:41:25;10.05;;;4.45;;
83184;SDS011;73080;48.768;11.528;2023-12-20T04:43:50;11.25;;;5.10;;
83184;SDS011;73080;48.768;11.528;2023-12-20T04:46:18;8.02;;;4.50;;
83184;SDS011;73080;48.768;11.528;2023-12-20T04:48:44;13.10;;;3.83;;
83184;SDS011;73080;48.768;11.528;2023-12-20T04:51:09;9.13;;;5.07;;
83184;SDS011;73080;48.768;11.528;2023-12-20T04:53:34;8.93;;;4.20;;
83184;SDS011;73080;48.768;11.528;2023-12-20T04:56:00;8.30;;;3.85;;
83184;SDS011;73080;48.768;11.528;2023-12-20T04:58:31;8.43;;;3.80;;
83184;SDS011;73080;48.768;11.528;2023-12-20T05:00:57;7.30;;;3.92;;
83184;SDS011;73080;48.768;11.528;2023-12-20T05:03:22;10.90;;;4.83;;
83184;SDS011;73080;48.768;11.528;2023-12-20T05:05:47;10.93;;;5.17;;
83184;SDS011;73080;48.768;11.528;2023-12-20T05:08:15;10.23;;;4.82;;
83184;SDS011;73080;48.768;11.528;2023-12-20T05:10:41;8.55;;;4.30;;
83184;SDS011;73080;48.768;11.528;2023-12-20T05:13:09;8.50;;;4.35;;
83184;SDS011;73080;48.768;11.528;2023-12-20T05:18:02;9.57;;;4.53;;
83184;SDS011;73080;48.768;11.528;2023-12-20T05:20:28;8.35;;;4.18;;
83184;SDS011;73080;48.768;11.528;2023-12-20T05:22:53;9.30;;;4.10;;
83184;SDS011;73080;48.768;11.528;2023-12-20T05:25:19;10.88;;;5.38;;
83184;SDS011;73080;48.768;11.528;2023-12-20T05:27:45;8.73;;;4.20;;
83184;SDS011;73080;48.768;11.528;2023-12-20T05:30:10;8.38;;;4.20;;
83184;SDS011;73080;48.768;11.528;2023-12-20T05:32:36;8.65;;;4.53;;
83184;SDS011;73080;48.768;11.528;2023-12-20T05:35:01;8.65;;;4.85;;
83184;SDS011;73080;48.768;11.528;2023-12-20T05:37:33;10.13;;;5.17;;
83184;SDS011;73080;48.768;11.528;2023-12-20T05:40:01;7.25;;;3.90;;
83184;SDS011;73080;48.768;11.528;2023-12-20T05:42:26;7.45;;;3.80;;
83184;SDS011;73080;48.768;11.528;2023-12-20T05:44:51;9.50;;;3.90;;
83184;SDS011;73080;48.768;11.528;2023-12-20T05:47:16;7.20;;;3.33;;
83184;SDS011;73080;48.768;11.528;2023-12-20T05:49:42;7.60;;;3.47;;
83184;SDS011;73080;48.768;11.528;2023-12-20T05:52:08;8.63;;;4.82;;
83184;SDS011;73080;48.768;11.528;2023-12-20T05:54:37;7.53;;;4.70;;
83184;SDS011;73080;48.768;11.528;2023-12-20T05:57:02;7.95;;;3.80;;
83184;SDS011;73080;48.768;11.528;2023-12-20T05:59:28;9.77;;;4.65;;
83184;SDS011;73080;48.768;11.528;2023-12-20T06:01:53;11.20;;;4.97;;
83184;SDS011;73080;48.768;11.528;2023-12-20T06:04:18;10.13;;;4.90;;
83184;SDS011;73080;48.768;11.528;2023-12-20T06:06:44;9.35;;;4.70;;
83184;SDS011;73080;48.768;11.528;2023-12-20T06:09:09;9.80;;;5.03;;
83184;SDS011;73080;48.768;11.528;2023-12-20T06:11:35;10.52;;;5.18;;
83184;SDS011;73080;48.768;11.528;2023-12-20T06:14:00;10.95;;;5.88;;
83184;SDS011;73080;48.768;11.528;2023-12-20T06:16:26;10.65;;;5.47;;
83184;SDS011;73080;48.768;11.528;2023-12-20T06:18:51;10.03;;;5.00;;
83184;SDS011;73080;48.768;11.528;2023-12-20T06:21:22;11.52;;;6.15;;
83184;SDS011;73080;48.768;11.528;2023-12-20T06:23:48;11.40;;;6.28;;
83184;SDS011;73080;48.768;11.528;2023-12-20T06:26:13;12.88;;;6.03;;
83184;SDS011;73080;48.768;11.528;2023-12-20T06:28:39;11.80;;;5.63;;
83184;SDS011;73080;48.768;11.528;2023-12-20T06:31:04;11.98;;;6.28;;
83184;SDS011;73080;48.768;11.528;2023-12-20T06:33:30;12.45;;;6.63;;
83184;SDS011;73080;48.768;11.528;2023-12-20T06:35:55;10.35;;;5.28;;
83184;SDS011;73080;48.768;11.528;2023-12-20T06:38:21;12.15;;;5.72;;
83184;SDS011;73080;48.768;11.528;2023-12-20T06:40:46;12.60;;;6.10;;
83184;SDS011;73080;48.768;11.528;2023-12-20T06:43:12;11.33;;;5.27;;
83184;SDS011;73080;48.768;11.528;2023-12-20T06:45:40;11.70;;;6.18;;
83184;SDS011;73080;48.768;11.528;2023-12-20T06:48:05;11.32;;;6.10;;
83184;SDS011;73080;48.768;11.528;2023-12-20T06:50:31;11.48;;;5.57;;
83184;SDS011;73080;48.768;11.528;2023-12-20T06:52:56;12.67;;;6.57;;
83184;SDS011;73080;48.768;11.528;2023-12-20T06:55:22;11.25;;;5.82;;
83184;SDS011;73080;48.768;11.528;2023-12-20T06:57:47;11.23;;;6.37;;
83184;SDS011;73080;48.768;11.528;2023-12-20T07:00:13;12.98;;;6.50;;
83184;SDS011;73080;48.768;11.528;2023-12-20T07:02:41;10.57;;;5.53;;
83184;SDS011;73080;48.768;11.528;2023-12-20T07:05:08;11.98;;;6.32;;
83184;SDS011;73080;48.768;11.528;2023-12-20T07:07:33;12.38;;;5.50;;
83184;SDS011;73080;48.768;11.528;2023-12-20T07:09:59;10.83;;;5.30;;
83184;SDS011;73080;48.768;11.528;2023-12-20T07:12:24;11.70;;;6.17;;
83184;SDS011;73080;48.768;11.528;2023-12-20T07:14:49;13.07;;;5.03;;
83184;SDS011;73080;48.768;11.528;2023-12-20T07:17:15;8.75;;;4.57;;
83184;SDS011;73080;48.768;11.528;2023-12-20T07:19:40;13.53;;;4.80;;
83184;SDS011;73080;48.768;11.528;2023-12-20T07:22:07;9.35;;;4.28;;
83184;SDS011;73080;48.768;11.528;2023-12-20T07:24:33;10.45;;;5.10;;
83184;SDS011;73080;48.768;11.528;2023-12-20T07:27:01;10.40;;;4.72;;
83184;SDS011;73080;48.768;11.528;2023-12-20T07:29:27;11.93;;;3.88;;
83184;SDS011;73080;48.768;11.528;2023-12-20T07:31:55;7.75;;;4.03;;
83184;SDS011;73080;48.768;11.528;2023-12-20T07:39:11;6.70;;;3.40;;
83184;SDS011;73080;48.768;11.528;2023-12-20T07:41:37;9.05;;;5.22;;
83184;SDS011;73080;48.768;11.528;2023-12-20T07:44:04;7.53;;;4.03;;
83184;SDS011;73080;48.768;11.528;2023-12-20T07:46:29;9.45;;;4.82;;
83184;SDS011;73080;48.768;11.528;2023-12-20T07:48:54;7.30;;;4.03;;
83184;SDS011;73080;48.768;11.528;2023-12-20T07:51:20;9.93;;;4.90;;
83184;SDS011;73080;48.768;11.528;2023-12-20T07:53:45;8.55;;;4.22;;
83184;SDS011;73080;48.768;11.528;2023-12-20T07:56:14;8.40;;;4.10;;
83184;SDS011;73080;48.768;11.528;2023-12-20T07:58:43;7.45;;;3.80;;
83184;SDS011;73080;48.768;11.528;2023-12-20T08:01:09;7.50;;;3.95;;
83184;SDS011;73080;48.768;11.528;2023-12-20T08:03:36;8.60;;;4.32;;
83184;SDS011;73080;48.768;11.528;2023-12-20T08:06:01;8.00;;;3.92;;
83184;SDS011;73080;48.768;11.528;2023-12-20T08:08:27;8.73;;;4.30;;
83184;SDS011;73080;48.768;11.528;2023-12-20T08:10:53;9.85;;;5.55;;
83184;SDS011;73080;48.768;11.528;2023-12-20T08:13:18;9.95;;;4.38;;
83184;SDS011;73080;48.768;11.528;2023-12-20T08:15:43;11.17;;;4.73;;
83184;SDS011;73080;48.768;11.528;2023-12-20T08:18:09;9.00;;;4.82;;
83184;SDS011;73080;48.768;11.528;2023-12-20T08:20:37;10.73;;;5.30;;
83184;SDS011;73080;48.768;11.528;2023-12-20T08:23:02;9.18;;;4.80;;
83184;SDS011;73080;48.768;11.528;2023-12-20T08:25:28;11.10;;;5.82;;
83184;SDS011;73080;48.768;11.528;2023-12-20T08:27:53;9.98;;;4.88;;
83184;SDS011;73080;48.768;11.528;2023-12-20T08:30:18;10.47;;;5.33;;
83184;SDS011;73080;48.768;11.528;2023-12-20T08:32:44;14.50;;;6.78;;
83184;SDS011;73080;48.768;11.528;2023-12-20T08:35:09;8.80;;;4.50;;
83184;SDS011;73080;48.768;11.528;2023-12-20T08:37:34;17.63;;;7.85;;
83184;SDS011;73080;48.768;11.528;2023-12-20T08:40:00;12.95;;;6.93;;
83184;SDS011;73080;48.768;11.528;2023-12-20T08:42:25;8.15;;;4.90;;
83184;SDS011;73080;48.768;11.528;2023-12-20T08:44:51;13.20;;;6.23;;
83184;SDS011;73080;48.768;11.528;2023-12-20T08:47:16;9.40;;;5.22;;
83184;SDS011;73080;48.768;11.528;2023-12-20T08:49:41;9.47;;;5.20;;
83184;SDS011;73080;48.768;11.528;2023-12-20T08:52:09;9.52;;;4.40;;
83184;SDS011;73080;48.768;11.528;2023-12-20T08:54:35;10.00;;;5.28;;
83184;SDS011;73080;48.768;11.528;2023-12-20T08:57:00;8.77;;;4.68;;
83184;SDS011;73080;48.768;11.528;2023-12-20T08:59:26;9.70;;;5.75;;
83184;SDS011;73080;48.768;11.528;2023-12-20T09:01:51;8.40;;;4.45;;
83184;SDS011;73080;48.768;11.528;2023-12-20T09:04:16;9.83;;;5.33;;
83184;SDS011;73080;48.768;11.528;2023-12-20T09:06:42;12.43;;;4.77;;
83184;SDS011;73080;48.768;11.528;2023-12-20T09:09:07;11.32;;;4.75;;
83184;SDS011;73080;48.768;11.528;2023-12-20T09:11:36;9.02;;;4.22;;
83184;SDS011;73080;48.768;11.528;2023-12-20T09:14:01;8.30;;;4.30;;
83184;SDS011;73080;48.768;11.528;2023-12-20T09:16:26;8.63;;;3.67;;
83184;SDS011;73080;48.768;11.528;2023-12-20T09:18:51;7.90;;;4.07;;
83184;SDS011;73080;48.768;11.528;2023-12-20T09:21:17;6.68;;;3.67;;
83184;SDS011;73080;48.768;11.528;2023-12-20T09:23:42;8.00;;;4.30;;
83184;SDS011;73080;48.768;11.528;2023-12-20T09:26:08;7.13;;;4.03;;
83184;SDS011;73080;48.768;11.528;2023-12-20T09:28:33;7.65;;;3.42;;
83184;SDS011;73080;48.768;11.528;2023-12-20T09:30:58;7.38;;;3.65;;
83184;SDS011;73080;48.768;11.528;2023-12-20T09:33:24;8.77;;;3.70;;
83184;SDS011;73080;48.768;11.528;2023-12-20T09:35:49;7.20;;;3.35;;
83184;SDS011;73080;48.768;11.528;2023-12-20T09:38:14;7.40;;;3.60;;
83184;SDS011;73080;48.768;11.528;2023-12-20T09:40:41;6.47;;;3.10;;
83184;SDS011;73080;48.768;11.528;2023-12-20T09:43:15;6.00;;;3.28;;
83184;SDS011;73080;48.768;11.528;2023-12-20T09:45:47;6.70;;;3.63;;
83184;SDS011;73080;48.768;11.528;2023-12-20T09:48:12;7.57;;;4.25;;
83184;SDS011;73080;48.768;11.528;2023-12-20T09:50:41;7.72;;;3.15;;
83184;SDS011;73080;48.768;11.528;2023-12-20T09:53:07;5.50;;;2.60;;
83184;SDS011;73080;48.768;11.528;2023-12-20T09:55:35;8.00;;;3.10;;
83184;SDS011;73080;48.768;11.528;2023-12-20T09:58:03;5.38;;;2.78;;
83184;SDS011;73080;48.768;11.528;2023-12-20T10:00:28;8.10;;;3.80;;
83184;SDS011;73080;48.768;11.528;2023-12-20T10:05:30;5.85;;;2.47;;
83184;SDS011;73080;48.768;11.528;2023-12-20T10:08:01;7.88;;;4.07;;
83184;SDS011;73080;48.768;11.528;2023-12-20T10:10:29;5.38;;;3.28;;
83184;SDS011;73080;48.768;11.528;2023-12-20T10:13:04;5.50;;;2.95;;
83184;SDS011;73080;48.768;11.528;2023-12-20T10:15:32;5.43;;;2.80;;
83184;SDS011;73080;48.768;11.528;2023-12-20T10:18:01;5.50;;;2.75;;
83184;SDS011;73080;48.768;11.528;2023-12-20T10:20:27;5.60;;;2.65;;
83184;SDS011;73080;48.768;11.528;2023-12-20T10:22:54;5.63;;;2.90;;
83184;SDS011;73080;48.768;11.528;2023-12-20T10:25:20;6.45;;;3.10;;
83184;SDS011;73080;48.768;11.528;2023-12-20T10:27:46;6.03;;;2.70;;
83184;SDS011;73080;48.768;11.528;2023-12-20T10:30:12;5.65;;;2.80;;
83184;SDS011;73080;48.768;11.528;2023-12-20T10:32:38;5.50;;;2.80;;
83184;SDS011;73080;48.768;11.528;2023-12-20T10:35:03;7.33;;;3.50;;
83184;SDS011;73080;48.768;11.528;2023-12-20T10:37:35;6.80;;;3.55;;
83184;SDS011;73080;48.768;11.528;2023-12-20T10:40:00;5.03;;;2.63;;
83184;SDS011;73080;48.768;11.528;2023-12-20T10:44:54;4.82;;;2.47;;
83184;SDS011;73080;48.768;11.528;2023-12-20T10:47:20;5.18;;;2.35;;
83184;SDS011;73080;48.768;11.528;2023-12-20T10:49:45;4.53;;;2.30;;
83184;SDS011;73080;48.768;11.528;2023-12-20T10:52:11;4.72;;;2.15;;
83184;SDS011;73080;48.768;11.528;2023-12-20T10:54:37;4.85;;;2.10;;
83184;SDS011;73080;48.768;11.528;2023-12-20T10:57:05;6.78;;;2.92;;
83184;SDS011;73080;48.768;11.528;2023-12-20T10:59:31;4.70;;;2.00;;
83184;SDS011;73080;48.768;11.528;2023-12-20T11:01:58;6.03;;;2.85;;
83184;SDS011;73080;48.768;11.528;2023-12-20T11:04:28;4.82;;;2.67;;
83184;SDS011;73080;48.768;11.528;2023-12-20T11:07:08;5.20;;;2.22;;
83184;SDS011;73080;48.768;11.528;2023-12-20T11:09:54;4.75;;;1.83;;
83184;SDS011;73080;48.768;11.528;2023-12-20T11:12:32;3.03;;;1.10;;
83184;SDS011;73080;48.768;11.528;2023-12-20T11:15:05;3.55;;;1.60;;
83184;SDS011;73080;48.768;11.528;2023-12-20T11:17:32;6.18;;;2.00;;
83184;SDS011;73080;48.768;11.528;2023-12-20T11:22:24;4.37;;;1.60;;
83184;SDS011;73080;48.768;11.528;2023-12-20T11:24:50;4.00;;;2.05;;
83184;SDS011;73080;48.768;11.528;2023-12-20T11:27:19;6.07;;;2.25;;
83184;SDS011;73080;48.768;11.528;2023-12-20T11:29:55;5.90;;;2.78;;
83184;SDS011;73080;48.768;11.528;2023-12-20T11:37:21;6.30;;;2.33;;
83184;SDS011;73080;48.768;11.528;2023-12-20T11:39:55;4.97;;;2.58;;
83184;SDS011;73080;48.768;11.528;2023-12-20T11:42:25;4.38;;;2.00;;
83184;SDS011;73080;48.768;11.528;2023-12-20T11:44:50;4.63;;;2.63;;
83184;SDS011;73080;48.768;11.528;2023-12-20T11:47:18;4.63;;;3.13;;
83184;SDS011;73080;48.768;11.528;2023-12-20T11:49:44;6.75;;;2.15;;
83184;SDS011;73080;48.768;11.528;2023-12-20T11:52:11;5.90;;;2.35;;
83184;SDS011;73080;48.768;11.528;2023-12-20T11:54:37;5.47;;;2.60;;
83184;SDS011;73080;48.768;11.528;2023-12-20T11:57:03;10.43;;;4.10;;
83184;SDS011;73080;48.768;11.528;2023-12-20T11:59:31;5.35;;;2.17;;
83184;SDS011;73080;48.768;11.528;2023-12-20T12:01:56;6.20;;;2.30;;
83184;SDS011;73080;48.768;11.528;2023-12-20T12:04:23;3.97;;;1.90;;
83184;SDS011;73080;48.768;11.528;2023-12-20T12:06:48;4.53;;;2.33;;
83184;SDS011;73080;48.768;11.528;2023-12-20T12:09:13;5.50;;;2.23;;
83184;SDS011;73080;48.768;11.528;2023-12-20T12:11:42;5.73;;;2.50;;
83184;SDS011;73080;48.768;11.528;2023-12-20T12:14:07;3.90;;;1.80;;
83184;SDS011;73080;48.768;11.528;2023-12-20T12:16:33;4.38;;;2.10;;
83184;SDS011;73080;48.768;11.528;2023-12-20T12:18:58;3.97;;;2.00;;
83184;SDS011;73080;48.768;11.528;2023-12-20T12:21:24;3.90;;;1.63;;
83184;SDS011;73080;48.768;11.528;2023-12-20T12:23:50;3.28;;;1.33;;
83184;SDS011;73080;48.768;11.528;2023-12-20T12:26:15;4.18;;;1.50;;
83184;SDS011;73080;48.768;11.528;2023-12-20T12:28:41;4.47;;;1.17;;
83184;SDS011;73080;48.768;11.528;2023-12-20T12:31:06;5.60;;;1.77;;
83184;SDS011;73080;48.768;11.528;2023-12-20T12:33:41;3.13;;;1.00;;
83184;SDS011;73080;48.768;11.528;2023-12-20T12:36:07;2.38;;;0.95;;
83184;SDS011;73080;48.768;11.528;2023-12-20T12:38:32;3.63;;;1.50;;
83184;SDS011;73080;48.768;11.528;2023-12-20T12:40:58;4.63;;;2.00;;
83184;SDS011;73080;48.768;11.528;2023-12-20T12:43:25;3.13;;;0.98;;
83184;SDS011;73080;48.768;11.528;2023-12-20T12:45:50;3.70;;;1.17;;
83184;SDS011;73080;48.768;11.528;2023-12-20T12:48:15;3.03;;;0.93;;
83184;SDS011;73080;48.768;11.528;2023-12-20T12:50:41;4.00;;;0.83;;
83184;SDS011;73080;48.768;11.528;2023-12-20T12:53:06;3.25;;;0.98;;
83184;SDS011;73080;48.768;11.528;2023-12-20T12:55:32;4.53;;;1.40;;
83184;SDS011;73080;48.768;11.528;2023-12-20T12:57:58;4.55;;;0.90;;
83184;SDS011;73080;48.768;11.528;2023-12-20T13:00:23;2.50;;;0.73;;
83184;SDS011;73080;48.768;11.528;2023-12-20T13:02:48;3.20;;;1.00;;
83184;SDS011;73080;48.768;11.528;2023-12-20T13:05:13;3.58;;;1.00;;
83184;SDS011;73080;48.768;11.528;2023-12-20T13:07:39;4.40;;;1.53;;
83184;SDS011;73080;48.768;11.528;2023-12-20T13:10:04;3.42;;;1.00;;
83184;SDS011;73080;48.768;11.528;2023-12-20T13:12:30;5.82;;;1.73;;
83184;SDS011;73080;48.768;11.528;2023-12-20T13:14:55;3.83;;;1.00;;
83184;SDS011;73080;48.768;11.528;2023-12-20T13:17:20;3.23;;;1.43;;
83184;SDS011;73080;48.768;11.528;2023-12-20T13:19:46;6.87;;;1.47;;
83184;SDS011;73080;48.768;11.528;2023-12-20T13:22:11;4.77;;;1.50;;
83184;SDS011;73080;48.768;11.528;2023-12-20T13:24:36;5.30;;;1.80;;
83184;SDS011;73080;48.768;11.528;2023-12-20T13:27:01;7.50;;;1.77;;
83184;SDS011;73080;48.768;11.528;2023-12-20T13:29:30;3.70;;;1.20;;
83184;SDS011;73080;48.768;11.528;2023-12-20T13:31:55;5.65;;;1.35;;
83184;SDS011;73080;48.768;11.528;2023-12-20T13:34:20;3.33;;;1.20;;
83184;SDS011;73080;48.768;11.528;2023-12-20T13:36:46;2.93;;;1.20;;
83184;SDS011;73080;48.768;11.528;2023-12-20T13:39:11;5.17;;;1.40;;
83184;SDS011;73080;48.768;11.528;2023-12-20T13:41:37;8.48;;;1.55;;
83184;SDS011;73080;48.768;11.528;2023-12-20T13:44:02;5.10;;;1.10;;
83184;SDS011;73080;48.768;11.528;2023-12-20T13:46:27;7.57;;;1.20;;
83184;SDS011;73080;48.768;11.528;2023-12-20T13:48:53;4.67;;;1.20;;
83184;SDS011;73080;48.768;11.528;2023-12-20T13:51:18;6.25;;;1.65;;
83184;SDS011;73080;48.768;11.528;2023-12-20T13:53:43;5.27;;;1.70;;
83184;SDS011;73080;48.768;11.528;2023-12-20T13:56:09;6.03;;;2.40;;
83184;SDS011;73080;48.768;11.528;2023-12-20T13:58:34;4.77;;;1.47;;
83184;SDS011;73080;48.768;11.528;2023-12-20T14:00:59;6.70;;;1.48;;
83184;SDS011;73080;48.768;11.528;2023-12-20T14:03:25;5.33;;;1.80;;
83184;SDS011;73080;48.768;11.528;2023-12-20T14:05:50;4.63;;;1.30;;
83184;SDS011;73080;48.768;11.528;2023-12-20T14:08:15;4.97;;;1.30;;
83184;SDS011;73080;48.768;11.528;2023-12-20T14:10:40;4.13;;;1.40;;
83184;SDS011;73080;48.768;11.528;2023-12-20T14:13:06;4.10;;;1.53;;
83184;SDS011;73080;48.768;11.528;2023-12-20T14:15:31;4.20;;;1.70;;
83184;SDS011;73080;48.768;11.528;2023-12-20T14:17:56;4.37;;;1.60;;
83184;SDS011;73080;48.768;11.528;2023-12-20T14:20:21;4.80;;;1.90;;
83184;SDS011;73080;48.768;11.528;2023-12-20T14:22:47;4.53;;;1.30;;
83184;SDS011;73080;48.768;11.528;2023-12-20T14:25:12;6.00;;;1.57;;
83184;SDS011;73080;48.768;11.528;2023-12-20T14:27:39;3.85;;;1.20;;
83184;SDS011;73080;48.768;11.528;2023-12-20T14:30:05;4.57;;;1.27;;
83184;SDS011;73080;48.768;11.528;2023-12-20T14:32:34;4.63;;;1.23;;
83184;SDS011;73080;48.768;11.528;2023-12-20T14:35:00;5.80;;;1.50;;
83184;SDS011;73080;48.768;11.528;2023-12-20T14:37:25;4.70;;;1.43;;
83184;SDS011;73080;48.768;11.528;2023-12-20T14:39:53;4.13;;;1.70;;
83184;SDS011;73080;48.768;11.528;2023-12-20T14:42:19;5.95;;;1.60;;
83184;SDS011;73080;48.768;11.528;2023-12-20T14:44:44;5.67;;;1.63;;
83184;SDS011;73080;48.768;11.528;2023-12-20T14:47:09;3.87;;;1.13;;
83184;SDS011;73080;48.768;11.528;2023-12-20T14:49:35;3.13;;;1.10;;
83184;SDS011;73080;48.768;11.528;2023-12-20T14:52:00;5.03;;;1.10;;
83184;SDS011;73080;48.768;11.528;2023-12-20T14:54:26;4.13;;;1.15;;
83184;SDS011;73080;48.768;11.528;2023-12-20T14:56:51;3.10;;;1.00;;
83184;SDS011;73080;48.768;11.528;2023-12-20T14:59:16;2.93;;;0.90;;
83184;SDS011;73080;48.768;11.528;2023-12-20T15:01:43;4.05;;;1.10;;
83184;SDS011;73080;48.768;11.528;2023-12-20T15:04:08;4.50;;;1.10;;
83184;SDS011;73080;48.768;11.528;2023-12-20T15:06:36;4.23;;;1.37;;
83184;SDS011;73080;48.768;11.528;2023-12-20T15:09:02;3.63;;;1.38;;
83184;SDS011;73080;48.768;11.528;2023-12-20T15:11:27;4.63;;;1.38;;